Time;durP1;ratioP1;P1;durP2;ratioP2;P2;SDS_P1;SDS_P2;PMS_P1;PMS_P2;Temp;Humidity;BMP_temperature;BMP_pressure;BME280_temperature;BME280_humidity;BME280_pressure;Samples;Min_cycle;Max_cycle;Signal;HPM_P1;HPM_P2
2022/03/13 00:00:57;;;;;;;15.57;11.10;;;4.00;67.60;;;;;;6212222;23;20507;-87
2022/03/13 00:03:43;;;;;;;24.20;13.13;;;4.00;67.50;;;;;;6214670;23;20406;-88
2022/03/13 00:06:34;;;;;;;17.90;12.73;;;4.00;67.50;;;;;;6214880;23;20399;-89
2022/03/13 00:09:22;;;;;;;15.70;11.17;;;3.90;68.00;;;;;;6212803;23;20547;-88
2022/03/13 00:12:14;;;;;;;19.23;13.57;;;3.80;68.80;;;;;;6214707;23;20750;-88
2022/03/13 00:15:02;;;;;;;17.23;12.17;;;3.70;69.30;;;;;;6214242;23;20906;-88
2022/03/13 00:17:49;;;;;;;19.83;13.00;;;3.80;70.40;;;;;;6214898;23;20724;-89
2022/03/13 00:20:35;;;;;;;20.65;12.05;;;3.80;69.30;;;;;;6212637;23;20493;-88
2022/03/13 00:23:21;;;;;;;19.40;10.63;;;3.80;71.00;;;;;;6214321;23;20231;-88
2022/03/13 00:26:07;;;;;;;17.20;11.67;;;3.80;70.20;;;;;;6214769;23;20431;-89
2022/03/13 00:28:55;;;;;;;17.67;12.63;;;3.80;71.10;;;;;;6212558;23;20419;-88
2022/03/13 00:31:40;;;;;;;17.27;11.93;;;3.70;70.50;;;;;;6214561;23;20383;-89
2022/03/13 00:34:26;;;;;;;19.83;12.30;;;3.70;71.10;;;;;;6214138;23;20446;-89
2022/03/13 00:37:12;;;;;;;17.57;11.40;;;3.70;71.30;;;;;;6214518;23;20382;-88
2022/03/13 00:40:00;;;;;;;16.90;12.13;;;3.70;71.10;;;;;;6212055;23;20556;-88
2022/03/13 00:42:45;;;;;;;16.23;11.17;;;3.70;70.80;;;;;;6214704;23;20484;-88
2022/03/13 00:45:32;;;;;;;27.83;13.07;;;3.80;71.40;;;;;;6214500;23;20383;-87
2022/03/13 00:48:18;;;;;;;19.13;12.23;;;3.80;71.10;;;;;;6213500;23;20443;-88
2022/03/13 00:51:04;;;;;;;18.63;11.63;;;3.70;71.80;;;;;;6214106;23;20430;-88
2022/03/13 00:53:50;;;;;;;21.03;12.87;;;3.90;71.40;;;;;;6212540;23;20447;-88
2022/03/13 00:56:36;;;;;;;15.73;11.40;;;3.80;71.90;;;;;;6214435;23;20378;-88
2022/03/13 00:59:21;;;;;;;21.70;11.83;;;3.80;71.90;;;;;;6212108;23;20411;-88
2022/03/13 01:02:10;;;;;;;19.57;12.30;;;3.90;71.40;;;;;;6214066;23;20776;-89
2022/03/13 01:04:56;;;;;;;19.73;12.20;;;3.90;70.70;;;;;;6213975;23;20387;-88
2022/03/13 01:07:42;;;;;;;18.83;11.83;;;3.80;71.50;;;;;;6213596;23;20519;-88
2022/03/13 01:10:28;;;;;;;19.57;12.90;;;3.60;72.10;;;;;;6213372;23;20938;-89
2022/03/13 01:13:13;;;;;;;21.73;12.70;;;3.50;73.00;;;;;;6213675;23;20716;-88
2022/03/13 01:16:11;;;;;;;23.00;11.77;;;3.40;73.40;;;;;;6214229;23;20422;-88
2022/03/13 01:19:00;;;;;;;23.40;13.90;;;3.50;72.50;;;;;;6211976;23;20436;-88
2022/03/13 01:21:45;;;;;;;17.23;11.87;;;3.50;72.30;;;;;;6214533;23;20431;-89
2022/03/13 01:24:34;;;;;;;20.87;12.80;;;3.50;72.60;;;;;;6213814;23;20392;-89
2022/03/13 01:27:19;;;;;;;21.30;13.17;;;3.50;72.20;;;;;;6214597;23;20414;-88
2022/03/13 01:30:06;;;;;;;21.60;13.00;;;3.50;72.80;;;;;;6212856;23;20543;-89
2022/03/13 01:32:53;;;;;;;22.50;13.20;;;3.60;72.70;;;;;;6214301;23;20371;-88
2022/03/13 01:35:41;;;;;;;21.60;13.93;;;3.50;72.50;;;;;;6214184;23;20930;-89
2022/03/13 01:38:34;;;;;;;21.33;13.63;;;3.30;72.90;;;;;;6211735;23;20409;-88
2022/03/13 01:41:19;;;;;;;20.40;13.60;;;3.20;73.40;;;;;;6214119;23;20379;-88
2022/03/13 01:44:05;;;;;;;18.67;12.90;;;3.20;73.70;;;;;;6213334;23;20505;-88
2022/03/13 01:46:51;;;;;;;20.95;14.20;;;3.10;74.10;;;;;;6214175;23;20397;-89
2022/03/13 01:49:37;;;;;;;24.93;13.33;;;3.00;73.60;;;;;;6212843;23;20208;-89
2022/03/13 01:52:27;;;;;;;24.03;13.13;;;3.10;74.00;;;;;;6214214;23;20723;-89
2022/03/13 01:55:14;;;;;;;21.97;12.50;;;3.20;73.80;;;;;;6213552;23;20474;-88
2022/03/13 01:57:59;;;;;;;20.87;12.93;;;3.30;74.00;;;;;;6211760;23;20471;-89
2022/03/13 02:00:46;;;;;;;17.33;12.97;;;3.20;74.30;;;;;;6213711;23;20771;-89
2022/03/13 02:03:31;;;;;;;25.23;14.40;;;3.30;74.20;;;;;;6213580;23;20431;-89
2022/03/13 02:06:17;;;;;;;18.13;13.40;;;3.20;74.30;;;;;;6213712;23;20504;-89
2022/03/13 02:09:07;;;;;;;18.20;13.50;;;3.20;74.60;;;;;;6211756;23;21007;-89
2022/03/13 02:11:54;;;;;;;25.50;13.20;;;3.30;74.80;;;;;;6213829;23;20387;-89
2022/03/13 02:14:40;;;;;;;16.13;11.90;;;3.20;75.00;;;;;;6214196;23;20759;-89
2022/03/13 02:17:28;;;;;;;19.80;11.77;;;3.30;74.60;;;;;;6213705;23;20471;-89
2022/03/13 02:20:21;;;;;;;18.70;11.90;;;3.30;75.10;;;;;;6229795;22;20469;-69
2022/03/13 02:23:16;;;;;;;23.20;12.57;;;3.30;74.20;;;;;;6212534;23;20510;-68
2022/03/13 02:26:03;;;;;;;20.07;13.03;;;3.10;74.80;;;;;;6213227;23;20491;-68
2022/03/13 02:28:52;;;;;;;21.73;13.40;;;3.20;75.00;;;;;;6211255;23;20379;-68
2022/03/13 02:31:39;;;;;;;22.00;13.27;;;3.00;74.80;;;;;;6213316;23;20204;-68
2022/03/13 02:34:25;;;;;;;19.70;11.87;;;2.90;75.00;;;;;;6212445;23;20433;-68
2022/03/13 02:37:20;;;;;;;15.47;11.37;;;2.90;75.30;;;;;;6211034;23;20435;-68
2022/03/13 02:40:14;;;;;;;16.57;11.33;;;2.90;75.20;;;;;;6212927;23;20379;-68
2022/03/13 02:42:59;;;;;;;18.70;12.17;;;2.90;75.80;;;;;;6212240;23;20466;-69
2022/03/13 02:45:46;;;;;;;19.77;13.03;;;3.00;75.90;;;;;;6213263;23;20451;-69
2022/03/13 02:48:31;;;;;;;18.23;11.00;;;2.90;75.80;;;;;;6212451;23;20446;-68
2022/03/13 02:51:19;;;;;;;20.35;11.10;;;2.90;76.40;;;;;;6213131;23;20435;-68
2022/03/13 02:54:04;;;;;;;15.20;10.93;;;2.80;76.20;;;;;;6212390;23;20218;-69
2022/03/13 02:56:51;;;;;;;15.47;10.53;;;2.90;75.40;;;;;;6211313;23;20380;-68
2022/03/13 02:59:37;;;;;;;18.27;10.93;;;2.90;75.80;;;;;;6213047;23;20375;-70
2022/03/13 03:02:23;;;;;;;17.70;11.48;;;2.90;76.20;;;;;;6213146;23;20412;-68
2022/03/13 03:05:10;;;;;;;14.50;10.60;;;2.90;75.80;;;;;;6212408;23;20261;-69
2022/03/13 03:07:56;;;;;;;19.57;10.93;;;2.70;76.10;;;;;;6210719;23;20991;-70
2022/03/13 03:10:42;;;;;;;23.30;10.70;;;2.80;76.00;;;;;;6212780;23;20375;-69
2022/03/13 03:13:29;;;;;;;13.77;9.20;;;2.80;75.80;;;;;;6212680;23;20276;-70
2022/03/13 03:16:15;;;;;;;14.07;10.30;;;2.80;76.00;;;;;;6210608;23;20380;-69
2022/03/13 03:19:01;;;;;;;16.13;9.90;;;2.90;75.80;;;;;;6212773;23;20383;-69
2022/03/13 03:21:47;;;;;;;16.77;10.30;;;2.90;75.20;;;;;;6212702;23;20468;-70
2022/03/13 03:24:33;;;;;;;18.97;10.57;;;2.90;75.00;;;;;;6212172;23;20761;-69
2022/03/13 03:27:18;;;;;;;14.70;9.73;;;2.90;75.40;;;;;;6210548;23;20384;-70
2022/03/13 03:30:06;;;;;;;14.80;10.17;;;2.90;75.30;;;;;;6212810;23;20379;-69
2022/03/13 03:32:53;;;;;;;12.47;9.63;;;2.80;75.50;;;;;;6212524;23;20788;-69
2022/03/13 03:35:39;;;;;;;15.37;9.33;;;2.80;75.00;;;;;;6211088;23;20383;-70
2022/03/13 03:38:25;;;;;;;11.77;8.87;;;2.80;74.50;;;;;;6212408;23;20909;-69
2022/03/13 03:41:11;;;;;;;19.53;9.47;;;2.80;74.60;;;;;;6212529;23;20504;-69
2022/03/13 03:43:57;;;;;;;14.87;9.37;;;2.60;74.90;;;;;;6212029;23;20912;-69
2022/03/13 03:46:45;;;;;;;17.70;8.73;;;2.60;74.70;;;;;;6210793;23;20451;-69
2022/03/13 03:49:30;;;;;;;13.87;9.17;;;2.50;75.10;;;;;;6213625;23;20383;-69
2022/03/13 03:52:16;;;;;;;17.23;9.90;;;2.50;75.50;;;;;;6214583;23;20410;-69
2022/03/13 03:55:02;;;;;;;13.90;9.40;;;2.50;75.50;;;;;;6213343;23;20499;-69
2022/03/13 03:57:47;;;;;;;14.20;9.93;;;2.50;75.50;;;;;;6213368;23;20380;-69
2022/03/13 04:00:33;;;;;;;16.57;8.70;;;2.50;75.50;;;;;;6214492;23;20394;-69
2022/03/13 04:03:20;;;;;;;14.67;9.37;;;2.50;75.20;;;;;;6214159;23;20423;-69
2022/03/13 04:06:06;;;;;;;14.03;9.87;;;2.50;75.10;;;;;;6212073;23;20412;-69
2022/03/13 04:08:52;;;;;;;17.80;9.27;;;2.50;75.00;;;;;;6214518;23;20397;-70
2022/03/13 04:11:38;;;;;;;14.13;9.60;;;2.40;75.20;;;;;;6214433;23;20418;-70
2022/03/13 04:14:24;;;;;;;14.40;9.17;;;2.40;74.30;;;;;;6213901;23;20208;-69
2022/03/13 04:17:10;;;;;;;12.07;8.23;;;2.50;75.50;;;;;;6213350;23;20488;-70
2022/03/13 04:19:58;;;;;;;16.33;9.50;;;2.40;75.10;;;;;;6214184;23;20411;-69
2022/03/13 04:22:43;;;;;;;16.20;9.63;;;2.40;75.40;;;;;;6214301;23;20252;-69
2022/03/13 04:25:29;;;;;;;11.97;8.63;;;2.30;75.30;;;;;;6212014;23;20454;-70
2022/03/13 04:28:17;;;;;;;15.25;10.10;;;2.30;75.10;;;;;;6214122;23;20383;-69
2022/03/13 04:31:08;;;;;;;13.83;9.57;;;2.30;74.50;;;;;;6213797;23;20204;-69
2022/03/13 04:33:54;;;;;;;19.63;8.60;;;2.20;74.30;;;;;;6213811;23;20427;-69
2022/03/13 04:36:42;;;;;;;14.23;8.93;;;2.20;75.30;;;;;;6212004;23;20380;-70
2022/03/13 04:39:27;;;;;;;13.10;8.80;;;2.30;74.00;;;;;;6214133;23;20679;-70
2022/03/13 04:42:13;;;;;;;15.23;8.13;;;2.20;75.30;;;;;;6213874;23;20977;-69
2022/03/13 04:44:58;;;;;;;13.90;9.00;;;2.10;75.20;;;;;;6211679;23;20506;-70
2022/03/13 04:47:44;;;;;;;14.13;8.40;;;2.20;75.30;;;;;;6213866;23;20379;-70
2022/03/13 04:50:30;;;;;;;16.98;9.48;;;2.30;75.30;;;;;;6214090;23;20705;-70
2022/03/13 04:53:17;;;;;;;13.50;9.15;;;2.40;74.50;;;;;;6213319;23;20177;-70
2022/03/13 04:56:03;;;;;;;14.80;8.50;;;2.50;74.70;;;;;;6212132;23;20865;-70
2022/03/13 04:58:50;;;;;;;10.33;8.00;;;2.50;73.90;;;;;;6213826;23;20467;-69
2022/03/13 05:01:35;;;;;;;15.53;8.70;;;2.40;74.30;;;;;;6213590;23;20921;-69
2022/03/13 05:04:21;;;;;;;12.57;9.10;;;2.40;74.80;;;;;;6211170;23;20473;-70
2022/03/13 05:07:07;;;;;;;13.37;8.50;;;2.40;75.00;;;;;;6213699;23;20967;-69
2022/03/13 05:09:54;;;;;;;13.80;8.90;;;2.30;74.10;;;;;;6214007;23;20383;-70
2022/03/13 05:12:40;;;;;;;10.10;8.63;;;2.20;75.30;;;;;;6213689;23;20410;-70
2022/03/13 05:15:26;;;;;;;14.02;8.32;;;2.20;74.80;;;;;;6211196;23;20512;-69
2022/03/13 05:18:13;;;;;;;15.17;9.00;;;2.20;75.30;;;;;;6213825;23;20171;-69
2022/03/13 05:20:59;;;;;;;15.10;9.70;;;2.20;75.30;;;;;;6213513;23;20430;-69
2022/03/13 05:23:45;;;;;;;13.83;9.10;;;2.20;75.50;;;;;;6212013;23;20819;-69
2022/03/13 05:26:33;;;;;;;10.20;7.37;;;2.10;75.60;;;;;;6213343;23;20426;-71
2022/03/13 05:29:19;;;;;;;15.27;9.20;;;2.10;75.20;;;;;;6213658;23;20471;-69
2022/03/13 05:32:05;;;;;;;14.27;9.48;;;2.00;75.40;;;;;;6213191;23;20206;-70
2022/03/13 05:34:51;;;;;;;11.70;8.30;;;2.00;75.20;;;;;;6211743;23;20164;-69
2022/03/13 05:37:37;;;;;;;12.65;8.57;;;2.10;75.20;;;;;;6213243;23;20427;-69
2022/03/13 05:40:23;;;;;;;14.57;9.40;;;1.90;74.50;;;;;;6213526;23;20678;-69
2022/03/13 05:43:11;;;;;;;13.23;9.50;;;1.80;75.40;;;;;;6213095;23;20519;-69
2022/03/13 05:45:57;;;;;;;12.50;9.32;;;1.70;76.70;;;;;;6212569;23;20838;-70
2022/03/13 05:48:43;;;;;;;13.47;8.53;;;1.70;74.90;;;;;;6213439;23;20175;-70
2022/03/13 05:51:29;;;;;;;12.10;8.10;;;1.70;76.40;;;;;;6213563;23;20771;-69
2022/03/13 05:54:15;;;;;;;16.53;8.20;;;1.70;77.40;;;;;;6210763;23;20375;-70
2022/03/13 05:57:04;;;;;;;11.50;8.33;;;1.80;78.10;;;;;;6213109;23;20431;-69
2022/03/13 05:59:51;;;;;;;13.32;8.15;;;1.90;77.70;;;;;;6213456;23;20466;-69
2022/03/13 06:02:40;;;;;;;11.25;8.23;;;1.90;77.10;;;;;;6213101;23;20533;-69
2022/03/13 06:05:26;;;;;;;11.90;7.90;;;1.80;76.50;;;;;;6211290;23;20542;-70
2022/03/13 06:08:11;;;;;;;11.60;8.47;;;1.80;77.80;;;;;;6213340;23;20354;-70
2022/03/13 06:10:57;;;;;;;11.63;8.60;;;1.90;77.80;;;;;;6213216;23;20435;-69
2022/03/13 06:13:43;;;;;;;13.70;8.33;;;1.90;78.10;;;;;;6211572;23;20377;-69
2022/03/13 06:16:30;;;;;;;15.47;9.00;;;1.90;78.20;;;;;;6212572;23;20495;-69
2022/03/13 06:19:16;;;;;;;16.53;8.93;;;1.90;77.40;;;;;;6212891;23;20388;-70
2022/03/13 06:22:01;;;;;;;14.53;8.43;;;2.10;77.80;;;;;;6213267;23;20389;-70
2022/03/13 06:24:47;;;;;;;13.70;9.80;;;2.20;77.80;;;;;;6210306;23;20441;-69
2022/03/13 06:27:33;;;;;;;15.00;8.40;;;2.20;78.10;;;;;;6213145;23;20463;-69
2022/03/13 06:30:20;;;;;;;12.20;7.95;;;2.40;77.90;;;;;;6212992;23;20171;-69
2022/03/13 06:33:07;;;;;;;16.00;9.23;;;2.60;77.40;;;;;;6211511;23;20191;-70
2022/03/13 06:35:52;;;;;;;13.30;8.30;;;2.80;76.70;;;;;;6212735;23;20392;-69
2022/03/13 06:38:38;;;;;;;15.23;8.40;;;2.90;76.70;;;;;;6212940;23;20376;-69
2022/03/13 06:41:24;;;;;;;13.63;8.37;;;3.00;75.80;;;;;;6213018;23;20822;-69
2022/03/13 06:44:10;;;;;;;14.70;9.50;;;3.10;75.90;;;;;;6210478;23;20423;-69
2022/03/13 06:46:56;;;;;;;12.37;8.93;;;3.00;75.80;;;;;;6212695;23;20938;-70
2022/03/13 06:49:43;;;;;;;16.40;8.80;;;3.20;74.00;;;;;;6213145;23;20511;-69
2022/03/13 06:52:29;;;;;;;13.87;9.00;;;3.20;71.50;;;;;;6212655;23;20389;-70
2022/03/13 06:55:14;;;;;;;15.67;8.50;;;3.30;71.60;;;;;;6210429;23;20376;-70
2022/03/13 06:58:00;;;;;;;13.53;8.73;;;3.30;70.40;;;;;;6212988;23;20422;-69
2022/03/13 07:00:47;;;;;;;16.37;8.77;;;3.40;69.70;;;;;;6213100;23;20382;-69
2022/03/13 07:03:32;;;;;;;13.03;8.70;;;3.50;71.70;;;;;;6210456;23;20417;-69
2022/03/13 07:06:20;;;;;;;13.50;9.30;;;3.50;67.60;;;;;;6213081;23;20337;-69
2022/03/13 07:09:06;;;;;;;12.30;8.53;;;3.60;68.30;;;;;;6212679;23;20382;-69
2022/03/13 07:11:51;;;;;;;12.83;8.50;;;3.70;68.30;;;;;;6213164;23;20748;-69
2022/03/13 07:14:37;;;;;;;13.70;8.50;;;3.80;69.50;;;;;;6210284;23;20688;-69
2022/03/13 07:17:23;;;;;;;14.07;8.17;;;3.80;64.20;;;;;;6213116;23;20698;-69
2022/03/13 07:20:09;;;;;;;12.50;8.00;;;3.90;63.20;;;;;;6212839;23;20407;-69
2022/03/13 07:22:57;;;;;;;14.60;9.60;;;4.10;63.80;;;;;;6210385;23;20420;-69
2022/03/13 07:25:43;;;;;;;15.80;9.30;;;4.20;62.30;;;;;;6214888;23;20419;-70
2022/03/13 07:28:29;;;;;;;13.87;9.73;;;4.20;61.50;;;;;;6214658;23;20667;-70
2022/03/13 07:31:15;;;;;;;15.37;9.43;;;4.40;63.10;;;;;;6215062;23;20487;-70
2022/03/13 07:34:01;;;;;;;16.63;9.93;;;4.60;64.20;;;;;;6211975;23;20380;-69
2022/03/13 07:36:46;;;;;;;14.30;10.33;;;4.60;63.20;;;;;;6214544;23;20354;-69
2022/03/13 07:39:34;;;;;;;15.50;9.40;;;4.80;63.60;;;;;;6214417;23;20392;-70
2022/03/13 07:42:19;;;;;;;17.00;10.63;;;4.90;62.90;;;;;;6237525;22;21152;-68
2022/03/13 07:45:06;;;;;;;16.93;10.30;;;5.00;61.50;;;;;;6243694;23;20431;-68
2022/03/13 07:47:54;;;;;;;15.60;10.07;;;5.20;60.60;;;;;;6245888;23;20375;-68
2022/03/13 07:50:40;;;;;;;16.40;10.17;;;5.30;63.10;;;;;;6245349;22;20378;-68
2022/03/13 07:53:27;;;;;;;16.67;10.30;;;5.50;64.30;;;;;;6243564;23;20434;-68
2022/03/13 07:56:15;;;;;;;14.97;9.60;;;5.70;64.10;;;;;;6244420;23;20353;-68
2022/03/13 07:59:01;;;;;;;20.40;11.03;;;5.90;64.20;;;;;;6245661;23;20675;-68
2022/03/13 08:01:47;;;;;;;16.50;10.80;;;6.10;62.80;;;;;;6243774;22;20830;-68
2022/03/13 08:04:33;;;;;;;14.63;10.07;;;6.30;62.00;;;;;;6243985;23;20433;-68
2022/03/13 08:07:19;;;;;;;13.97;9.33;;;6.40;61.70;;;;;;6245230;23;20418;-68
2022/03/13 08:10:05;;;;;;;15.60;9.00;;;6.60;60.60;;;;;;6245142;23;20496;-68
2022/03/13 08:12:54;;;;;;;12.80;9.60;;;6.70;59.80;;;;;;6243348;23;20437;-67
2022/03/13 08:15:39;;;;;;;17.93;10.50;;;6.80;60.10;;;;;;6245138;23;20395;-68
2022/03/13 08:18:25;;;;;;;16.20;8.53;;;7.00;55.50;;;;;;6244713;23;20407;-68
2022/03/13 08:21:10;;;;;;;17.50;11.23;;;7.20;54.20;;;;;;6243840;22;20425;-68
2022/03/13 08:23:57;;;;;;;14.10;9.90;;;7.40;53.70;;;;;;6242493;23;20463;-68
2022/03/13 08:26:43;;;;;;;14.10;9.13;;;7.60;51.40;;;;;;6244939;23;20503;-68
2022/03/13 08:29:30;;;;;;;16.07;10.13;;;7.80;48.30;;;;;;6244739;23;20461;-68
2022/03/13 08:32:16;;;;;;;14.03;10.20;;;8.00;44.00;;;;;;6242915;22;20381;-68
2022/03/13 08:35:02;;;;;;;15.27;9.60;;;8.10;42.60;;;;;;6243899;23;20372;-68
2022/03/13 08:37:48;;;;;;;16.00;9.20;;;8.20;42.00;;;;;;6244820;23;20703;-68
2022/03/13 08:40:34;;;;;;;15.60;8.87;;;8.30;41.90;;;;;;6244406;22;20405;-68
2022/03/13 08:43:20;;;;;;;12.00;8.77;;;8.50;40.00;;;;;;6241923;23;20663;-68
2022/03/13 08:46:06;;;;;;;13.40;8.47;;;8.60;36.80;;;;;;6244219;23;20419;-68
2022/03/13 08:48:52;;;;;;;14.03;8.60;;;8.80;35.80;;;;;;6244186;23;20381;-68
2022/03/13 08:51:38;;;;;;;20.13;10.07;;;8.80;36.50;;;;;;6243849;22;20519;-68
2022/03/13 08:54:23;;;;;;;13.43;8.80;;;9.00;34.20;;;;;;6243732;23;20383;-68
2022/03/13 08:57:09;;;;;;;12.40;8.27;;;9.10;36.30;;;;;;6245122;23;20346;-68
2022/03/13 08:59:55;;;;;;;10.83;7.47;;;9.30;34.80;;;;;;6245030;23;20376;-68
2022/03/13 09:02:43;;;;;;;10.57;7.27;;;9.50;36.40;;;;;;6243077;22;20382;-68
2022/03/13 09:05:29;;;;;;;13.00;9.23;;;9.60;34.20;;;;;;6244080;23;20394;-68
2022/03/13 09:08:15;;;;;;;11.83;8.23;;;9.70;31.50;;;;;;6244168;23;20476;-68
2022/03/13 09:11:00;;;;;;;12.40;7.70;;;9.90;32.20;;;;;;6244206;22;20881;-68
2022/03/13 09:13:46;;;;;;;14.70;7.63;;;10.10;30.60;;;;;;6243142;23;20346;-68
2022/03/13 09:16:33;;;;;;;13.67;8.13;;;10.20;30.60;;;;;;6244066;23;20397;-68
2022/03/13 09:19:20;;;;;;;14.00;8.57;;;10.40;31.00;;;;;;6244175;23;20802;-68
2022/03/13 09:22:06;;;;;;;12.47;8.57;;;10.50;31.40;;;;;;6241948;22;20439;-68
2022/03/13 09:24:51;;;;;;;18.20;10.27;;;10.70;30.40;;;;;;6243761;23;20414;-68
2022/03/13 09:27:37;;;;;;;18.23;7.97;;;10.80;29.90;;;;;;6243944;23;20431;-68
2022/03/13 09:30:23;;;;;;;14.73;9.23;;;10.90;30.50;;;;;;6244308;23;20351;-68
2022/03/13 09:33:08;;;;;;;12.93;9.00;;;11.10;30.00;;;;;;6241309;23;20851;-68
2022/03/13 09:35:55;;;;;;;13.10;9.27;;;11.20;28.90;;;;;;6244231;23;20801;-68
2022/03/13 09:38:40;;;;;;;13.67;8.90;;;11.30;29.10;;;;;;6243618;23;20707;-68
2022/03/13 09:41:26;;;;;;;11.93;8.40;;;11.50;28.80;;;;;;6241911;22;20558;-68
2022/03/13 09:44:12;;;;;;;15.23;9.33;;;11.60;29.60;;;;;;6243214;23;20942;-69
2022/03/13 09:46:58;;;;;;;11.67;8.30;;;11.70;29.50;;;;;;6243613;23;20677;-68
2022/03/13 09:49:44;;;;;;;15.83;10.60;;;11.90;29.20;;;;;;6243714;23;20372;-68
2022/03/13 09:52:33;;;;;;;13.57;9.30;;;12.10;29.90;;;;;;6242169;22;20949;-68
2022/03/13 09:55:19;;;;;;;17.60;9.67;;;12.20;28.40;;;;;;6242047;23;20460;-68
2022/03/13 09:58:06;;;;;;;12.70;8.70;;;12.40;27.30;;;;;;6243702;23;20697;-68
2022/03/13 10:00:52;;;;;;;14.90;8.70;;;12.60;27.90;;;;;;6242484;22;20416;-68
2022/03/13 10:03:37;;;;;;;18.17;10.43;;;12.70;28.50;;;;;;6243179;23;20399;-69
2022/03/13 10:06:25;;;;;;;15.77;10.50;;;12.90;26.30;;;;;;6243507;23;20419;-69
2022/03/13 10:12:12;;;;;;;17.03;9.60;;;12.90;26.30;;;;;;5077518;27;20553;-69
2022/03/13 10:15:05;;;;;;;15.63;9.90;;;13.30;27.00;;;;;;5057724;28;20415;-69
2022/03/13 10:17:51;;;;;;;17.60;10.70;;;13.40;26.90;;;;;;5064789;28;20428;-69
2022/03/13 10:20:39;;;;;;;14.77;10.33;;;13.60;26.20;;;;;;5060053;28;20482;-69
2022/03/13 10:23:24;;;;;;;16.53;10.83;;;13.80;25.80;;;;;;5063013;28;20426;-69
2022/03/13 10:26:11;;;;;;;16.30;10.33;;;13.90;25.90;;;;;;5068240;28;20425;-69
2022/03/13 10:28:58;;;;;;;18.27;11.80;;;14.10;26.50;;;;;;5066556;28;20587;-69
2022/03/13 10:31:57;;;;;;;17.20;12.33;;;14.20;26.10;;;;;;5060453;28;20482;-70
2022/03/13 10:34:54;;;;;;;17.17;12.50;;;14.30;26.20;;;;;;5064607;28;20405;-70
2022/03/13 10:37:43;;;;;;;16.90;11.23;;;14.50;26.10;;;;;;5071697;28;20441;-69
2022/03/13 10:40:36;;;;;;;18.43;11.70;;;14.70;25.10;;;;;;5066611;28;20390;-69
2022/03/13 10:43:26;;;;;;;16.23;10.53;;;14.90;24.90;;;;;;5065032;28;20415;-69
2022/03/13 10:46:24;;;;;;;17.43;10.43;;;15.00;25.00;;;;;;5061191;28;20573;-69
2022/03/13 10:49:11;;;;;;;18.33;11.93;;;15.10;25.00;;;;;;5061683;28;20417;-69
2022/03/13 10:51:57;;;;;;;19.53;11.70;;;15.40;25.50;;;;;;5067439;28;20548;-70
2022/03/13 10:54:46;;;;;;;19.13;12.03;;;15.60;24.10;;;;;;5060378;28;20813;-70
2022/03/13 10:57:32;;;;;;;20.97;11.40;;;15.80;23.30;;;;;;5053580;28;20464;-70
2022/03/13 11:00:18;;;;;;;16.63;10.73;;;15.90;24.80;;;;;;5053101;28;20416;-70
2022/03/13 11:03:17;;;;;;;20.40;11.03;;;16.10;24.30;;;;;;5055977;28;20560;-70
2022/03/13 11:06:03;;;;;;;16.33;11.07;;;16.40;24.70;;;;;;5057018;28;20551;-70
2022/03/13 11:08:50;;;;;;;21.70;11.03;;;16.60;23.60;;;;;;5060728;28;20453;-70
2022/03/13 11:11:36;;;;;;;16.23;11.57;;;16.90;23.90;;;;;;5056369;28;20476;-70
2022/03/13 11:14:22;;;;;;;15.73;11.10;;;17.10;24.00;;;;;;5054786;28;20446;-70
2022/03/13 11:17:11;;;;;;;19.10;13.00;;;17.40;23.70;;;;;;5053514;28;20446;-70
2022/03/13 11:19:59;;;;;;;18.40;12.53;;;17.30;22.20;;;;;;5057734;28;21036;-70
2022/03/13 11:22:45;;;;;;;23.03;12.53;;;17.40;22.10;;;;;;5049444;28;21072;-69
2022/03/13 11:25:30;;;;;;;16.20;11.43;;;17.30;22.20;;;;;;5043448;28;20532;-69
2022/03/13 11:28:17;;;;;;;20.23;12.43;;;17.40;22.10;;;;;;5047312;28;20448;-70
2022/03/13 11:31:03;;;;;;;16.03;11.50;;;17.40;22.40;;;;;;5039463;28;20476;-69
2022/03/13 11:33:49;;;;;;;25.27;13.30;;;17.30;21.20;;;;;;5047495;28;20441;-69
2022/03/13 11:36:36;;;;;;;18.80;12.40;;;17.30;23.30;;;;;;5041576;28;20831;-70
2022/03/13 11:39:27;;;;;;;18.20;12.77;;;17.40;22.70;;;;;;5053107;28;20571;-69
2022/03/13 11:42:23;;;;;;;20.33;12.07;;;17.40;22.40;;;;;;5051763;28;20459;-69
2022/03/13 11:45:31;;;;;;;24.03;12.57;;;17.60;23.10;;;;;;5047925;28;20963;-70
2022/03/13 11:48:40;;;;;;;19.97;13.00;;;17.60;23.30;;;;;;5049423;28;20442;-69
2022/03/13 11:51:30;;;;;;;22.80;13.10;;;17.60;22.70;;;;;;5041571;28;20999;-69
2022/03/13 11:54:58;;;;;;;16.30;11.70;;;17.70;22.90;;;;;;5040231;28;20500;-70
2022/03/13 11:57:45;;;;;;;16.17;11.43;;;17.60;23.60;;;;;;5043799;28;20960;-70
2022/03/13 12:00:32;;;;;;;19.63;13.40;;;17.80;23.20;;;;;;5041233;28;20781;-69
2022/03/13 12:03:18;;;;;;;16.60;11.37;;;17.60;22.00;;;;;;5049919;28;20459;-70
2022/03/13 12:06:05;;;;;;;27.07;12.47;;;17.70;22.80;;;;;;5047230;28;20444;-69
2022/03/13 12:09:06;;;;;;;17.57;12.33;;;17.90;22.80;;;;;;5041673;28;20585;-70
2022/03/13 12:12:02;;;;;;;15.67;11.87;;;17.90;22.90;;;;;;5039271;28;20505;-69
2022/03/13 12:15:02;;;;;;;19.17;12.50;;;18.00;22.90;;;;;;5045054;28;20516;-69
2022/03/13 12:17:48;;;;;;;16.83;12.10;;;18.00;22.60;;;;;;5044268;28;20463;-69
2022/03/13 12:20:35;;;;;;;23.93;12.40;;;18.10;23.40;;;;;;5044426;28;20434;-69
2022/03/13 12:23:31;;;;;;;17.80;11.93;;;18.20;23.80;;;;;;5045314;28;21010;-69
2022/03/13 12:26:18;;;;;;;15.57;11.60;;;18.20;23.20;;;;;;5049292;28;20445;-69
2022/03/13 12:29:05;;;;;;;20.33;12.97;;;18.20;22.70;;;;;;5039437;28;20445;-69
2022/03/13 12:31:53;;;;;;;16.07;12.80;;;18.20;23.30;;;;;;5046709;28;20939;-70
2022/03/13 12:34:40;;;;;;;18.90;12.60;;;18.30;23.10;;;;;;5048153;28;20535;-70
2022/03/13 12:37:27;;;;;;;17.37;12.80;;;18.30;23.00;;;;;;5036469;28;20455;-70
2022/03/13 12:40:14;;;;;;;19.43;12.40;;;18.30;22.90;;;;;;5044271;28;20451;-70
2022/03/13 12:43:01;;;;;;;21.00;14.50;;;18.20;23.60;;;;;;5048040;28;20443;-71
2022/03/13 12:45:51;;;;;;;18.77;13.00;;;18.30;23.50;;;;;;5034869;28;20444;-71
2022/03/13 12:48:37;;;;;;;19.60;12.73;;;18.20;23.50;;;;;;5042329;28;20672;-71
2022/03/13 12:51:47;;;;;;;21.10;13.43;;;18.30;23.70;;;;;;5037992;28;20483;-71
2022/03/13 12:54:33;;;;;;;19.70;14.27;;;18.50;24.20;;;;;;5033168;28;20436;-69
2022/03/13 12:57:19;;;;;;;24.00;14.87;;;18.70;23.20;;;;;;5042337;28;20458;-70
2022/03/13 13:00:09;;;;;;;18.17;12.40;;;18.90;23.10;;;;;;5041270;28;20490;-69
2022/03/13 13:03:00;;;;;;;20.10;13.13;;;19.30;23.00;;;;;;5051863;28;20466;-70
2022/03/13 13:05:51;;;;;;;16.97;13.03;;;19.40;22.10;;;;;;5050369;28;20456;-70
2022/03/13 13:08:37;;;;;;;17.07;12.83;;;19.40;22.30;;;;;;5048938;28;20540;-70
2022/03/13 13:11:35;;;;;;;20.87;13.63;;;19.50;22.20;;;;;;5036881;28;20475;-69
2022/03/13 13:14:23;;;;;;;21.00;12.90;;;19.60;22.20;;;;;;5047076;28;20474;-70
2022/03/13 13:17:12;;;;;;;16.60;13.13;;;19.90;22.50;;;;;;5048966;28;20443;-70
2022/03/13 13:20:01;;;;;;;18.80;13.80;;;20.10;22.40;;;;;;5051559;28;20449;-70
2022/03/13 13:22:48;;;;;;;22.50;14.23;;;20.30;22.50;;;;;;5041028;28;20975;-70
2022/03/13 13:25:34;;;;;;;19.27;13.80;;;20.20;21.60;;;;;;5048153;28;20423;-70
2022/03/13 13:28:19;;;;;;;17.27;13.30;;;20.20;22.00;;;;;;5043409;28;20809;-70
2022/03/13 13:31:13;;;;;;;17.27;13.07;;;20.00;22.30;;;;;;5047375;28;20643;-70
2022/03/13 13:34:14;;;;;;;20.00;12.80;;;19.80;22.90;;;;;;5037448;28;20463;-70
2022/03/13 13:37:10;;;;;;;18.37;12.77;;;19.90;21.70;;;;;;5047560;28;20476;-69
2022/03/13 13:40:04;;;;;;;17.60;13.30;;;20.10;22.90;;;;;;5042520;28;20675;-70
2022/03/13 13:42:54;;;;;;;20.07;14.27;;;20.30;21.80;;;;;;5040119;28;20452;-70
2022/03/13 13:45:45;;;;;;;17.67;12.17;;;20.20;21.50;;;;;;5038878;28;20946;-70
2022/03/13 13:48:32;;;;;;;13.80;9.97;;;20.30;22.40;;;;;;5045024;28;20787;-70
2022/03/13 13:51:31;;;;;;;17.67;12.80;;;20.50;22.50;;;;;;5046303;28;20467;-70
2022/03/13 13:54:20;;;;;;;18.60;12.30;;;20.70;22.30;;;;;;5044427;28;20943;-70
2022/03/13 13:57:05;;;;;;;24.40;14.27;;;20.40;21.70;;;;;;5043196;28;20431;-70
2022/03/13 13:59:51;;;;;;;19.33;13.97;;;20.40;21.90;;;;;;5042549;28;20476;-70
2022/03/13 14:02:37;;;;;;;19.13;13.23;;;20.50;22.10;;;;;;5047971;28;20455;-70
2022/03/13 14:05:23;;;;;;;19.30;12.30;;;20.80;22.60;;;;;;5044128;28;20446;-70
2022/03/13 14:08:09;;;;;;;21.40;13.70;;;21.00;21.40;;;;;;5051984;28;20477;-70
2022/03/13 14:10:58;;;;;;;15.80;12.37;;;21.00;21.50;;;;;;5043657;28;20463;-69
2022/03/13 14:13:45;;;;;;;19.43;13.10;;;21.20;21.40;;;;;;5047194;28;20955;-70
2022/03/13 14:16:32;;;;;;;18.40;12.60;;;21.10;21.30;;;;;;5046556;28;20469;-70
2022/03/13 14:19:17;;;;;;;17.83;13.40;;;21.00;22.60;;;;;;5045140;28;20513;-70
2022/03/13 14:22:04;;;;;;;21.67;14.50;;;20.90;22.10;;;;;;5052161;28;20842;-70
2022/03/13 14:24:49;;;;;;;21.87;13.07;;;20.90;21.90;;;;;;5050055;28;20402;-70